createdAt,value
2019-05-18T00:02:12.880Z,11.00
2019-05-18T00:04:43.646Z,10.90
2019-05-18T00:07:14.376Z,10.80
2019-05-18T00:09:45.112Z,10.70
2019-05-18T00:12:15.803Z,10.70
2019-05-18T00:14:47.858Z,10.50
2019-05-18T00:17:25.233Z,10.40
2019-05-18T00:19:50.999Z,10.30
2019-05-18T00:22:21.663Z,10.30
2019-05-18T00:24:52.404Z,10.20
2019-05-18T00:27:23.130Z,10.20
2019-05-18T00:29:54.925Z,10.10
2019-05-18T00:32:25.976Z,10.00
2019-05-18T00:34:56.683Z,10.00
2019-05-18T00:37:27.725Z,9.90
2019-05-18T00:39:58.394Z,9.90
2019-05-18T00:42:29.476Z,9.80
2019-05-18T00:45:00.283Z,9.80
2019-05-18T00:47:40.767Z,9.90
2019-05-18T00:50:03.347Z,9.80
2019-05-18T00:52:34.057Z,9.80
2019-05-18T00:55:05.133Z,9.70
2019-05-18T00:57:35.841Z,9.70
2019-05-18T01:00:07.979Z,9.70
2019-05-18T01:02:38.775Z,9.60
2019-05-18T01:05:10.095Z,9.60
2019-05-18T01:07:40.811Z,9.50
2019-05-18T01:10:11.902Z,9.50
2019-05-18T01:12:43.038Z,9.50
2019-05-18T01:15:14.277Z,9.60
2019-05-18T01:17:57.010Z,9.60
2019-05-18T01:20:18.441Z,9.60
2019-05-18T01:22:49.125Z,9.50
2019-05-18T01:25:19.895Z,9.40
2019-05-18T01:27:52.661Z,9.40
2019-05-18T01:30:23.570Z,9.40
2019-05-18T01:32:54.304Z,9.30
2019-05-18T01:35:25.073Z,9.30
2019-05-18T01:37:55.722Z,9.30
2019-05-18T01:40:26.442Z,9.20
2019-05-18T01:42:57.110Z,9.20
2019-05-18T01:45:27.828Z,9.10
2019-05-18T01:48:12.713Z,9.10
2019-05-18T01:50:31.613Z,9.20
2019-05-18T01:53:02.318Z,9.20
2019-05-18T01:55:33.525Z,9.30
2019-05-18T01:58:04.213Z,9.20
2019-05-18T02:00:35.085Z,9.10
2019-05-18T02:03:08.900Z,9.20
2019-05-18T02:05:39.574Z,9.10
2019-05-18T02:08:10.252Z,9.00
2019-05-18T02:10:40.959Z,9.00
2019-05-18T02:13:11.613Z,9.10
2019-05-18T02:15:43.011Z,9.10
2019-05-18T02:18:26.868Z,9.00
2019-05-18T02:20:46.611Z,8.90
2019-05-18T02:23:17.339Z,8.80
2019-05-18T02:25:47.996Z,8.90
2019-05-18T02:28:18.729Z,8.80
2019-05-18T02:30:49.462Z,8.80
2019-05-18T02:33:20.113Z,8.60
2019-05-18T02:35:51.076Z,8.60
2019-05-18T02:38:21.822Z,8.60
2019-05-18T02:40:52.526Z,8.60
2019-05-18T02:43:23.211Z,8.50
2019-05-18T02:45:53.990Z,8.50
2019-05-18T02:48:24.630Z,8.40
2019-05-18T02:50:55.399Z,8.50
2019-05-18T02:53:26.285Z,8.40
2019-05-18T02:55:56.950Z,8.40
2019-05-18T02:58:27.941Z,8.40
2019-05-18T03:00:58.640Z,8.40
2019-05-18T03:03:29.842Z,8.30
2019-05-18T03:06:00.940Z,8.30
2019-05-18T03:08:32.225Z,8.30
2019-05-18T03:11:03.198Z,8.30
2019-05-18T03:13:34.998Z,8.30
2019-05-18T03:16:05.683Z,8.30
2019-05-18T03:18:36.323Z,8.40
2019-05-18T03:21:07.023Z,8.30
2019-05-18T03:23:37.824Z,8.30
2019-05-18T03:26:08.487Z,8.30
2019-05-18T03:28:39.251Z,8.40
2019-05-18T03:31:09.903Z,8.30
2019-05-18T03:33:41.239Z,8.30
2019-05-18T03:36:11.995Z,8.30
2019-05-18T03:38:42.779Z,8.30
2019-05-18T03:41:13.424Z,8.30
2019-05-18T03:43:44.086Z,8.30
2019-05-18T03:46:14.770Z,8.30
2019-05-18T03:48:45.714Z,8.30
2019-05-18T03:51:17.067Z,8.40
2019-05-18T03:53:49.994Z,8.40
2019-05-18T03:56:20.831Z,8.50
2019-05-18T03:58:51.511Z,8.60
2019-05-18T04:01:33.034Z,8.70
2019-05-18T04:04:03.980Z,8.70
2019-05-18T04:06:34.930Z,8.80
2019-05-18T04:09:09.029Z,9.00
2019-05-18T04:11:41.551Z,9.20
2019-05-18T04:14:12.315Z,9.40
2019-05-18T04:16:43.024Z,9.70
2019-05-18T04:19:13.720Z,9.80
2019-05-18T04:21:44.803Z,10.00
2019-05-18T04:24:15.594Z,10.20
2019-05-18T04:26:46.868Z,10.50
2019-05-18T04:29:17.570Z,10.70
2019-05-18T04:31:48.303Z,11.00
2019-05-18T04:34:18.967Z,11.00
2019-05-18T04:36:49.656Z,11.10
2019-05-18T04:39:20.354Z,11.10
2019-05-18T04:41:51.329Z,11.30
2019-05-18T04:44:22.072Z,11.60
2019-05-18T04:46:52.763Z,12.00
2019-05-18T04:49:23.520Z,12.20
2019-05-18T04:51:54.243Z,12.60
2019-05-18T04:54:24.916Z,12.80
2019-05-18T04:56:55.587Z,13.00
2019-05-18T04:59:26.301Z,13.10
2019-05-18T05:01:57.250Z,13.20
2019-05-18T05:04:27.916Z,13.40
2019-05-18T05:06:58.684Z,13.60
2019-05-18T05:09:29.519Z,13.70
2019-05-18T05:12:00.177Z,13.80
2019-05-18T05:14:30.854Z,14.10
2019-05-18T05:17:01.575Z,14.20
2019-05-18T05:19:32.383Z,14.50
2019-05-18T05:22:03.207Z,14.70
2019-05-18T05:24:34.796Z,15.00
2019-05-18T05:27:05.542Z,15.20
2019-05-18T05:29:36.609Z,15.20
2019-05-18T05:32:07.599Z,15.10
2019-05-18T05:34:38.536Z,15.30
2019-05-18T05:37:09.412Z,15.50
2019-05-18T05:39:41.187Z,15.60
2019-05-18T05:42:11.957Z,15.90
2019-05-18T05:44:42.672Z,15.90
2019-05-18T05:47:13.334Z,16.10
2019-05-18T05:49:43.970Z,16.20
2019-05-18T05:52:14.666Z,16.40
2019-05-18T05:54:45.509Z,16.50
2019-05-18T05:57:16.168Z,16.50
2019-05-18T05:59:47.048Z,16.50
2019-05-18T06:02:17.794Z,16.80
2019-05-18T06:04:48.491Z,17.10
2019-05-18T06:07:19.168Z,17.10
2019-05-18T06:09:49.891Z,17.20
2019-05-18T06:12:20.721Z,17.40
2019-05-18T06:14:51.691Z,17.50
2019-05-18T06:17:22.367Z,17.50
2019-05-18T06:19:53.176Z,17.90
2019-05-18T06:22:25.184Z,18.10
2019-05-18T06:24:56.026Z,18.30
2019-05-18T06:27:26.760Z,18.10
2019-05-18T06:29:57.451Z,18.40
2019-05-18T06:32:28.129Z,18.50
2019-05-18T06:34:58.892Z,18.90
2019-05-18T06:37:29.593Z,18.80
2019-05-18T06:40:00.884Z,19.00
2019-05-18T06:42:32.131Z,19.20
2019-05-18T06:45:03.553Z,19.20
2019-05-18T06:47:34.327Z,19.40
2019-05-18T06:50:05.051Z,19.40
2019-05-18T06:52:35.847Z,19.40
2019-05-18T06:55:06.882Z,19.60
2019-05-18T06:57:38.789Z,19.50
2019-05-18T07:00:13.724Z,19.40
2019-05-18T07:02:44.509Z,19.50
2019-05-18T07:05:15.259Z,19.60
2019-05-18T07:07:45.929Z,20.20
2019-05-18T07:10:16.727Z,20.20
2019-05-18T07:12:47.370Z,20.40
2019-05-18T07:15:19.342Z,20.60
2019-05-18T07:17:51.427Z,20.60
2019-05-18T07:20:22.083Z,20.70
2019-05-18T07:22:52.835Z,20.30
2019-05-18T07:25:23.594Z,20.50
2019-05-18T07:27:54.385Z,20.20
2019-05-18T07:30:25.254Z,20.60
2019-05-18T07:32:56.079Z,20.60
2019-05-18T07:35:26.845Z,20.50
2019-05-18T07:37:57.620Z,20.70
2019-05-18T07:40:28.414Z,20.60
2019-05-18T07:43:11.977Z,20.90
2019-05-18T07:45:52.409Z,20.60
2019-05-18T07:48:23.463Z,21.00
2019-05-18T07:50:54.136Z,21.20
2019-05-18T07:53:24.865Z,21.20
2019-05-18T07:55:55.669Z,21.30
2019-05-18T07:58:27.481Z,21.30
2019-05-18T08:01:01.849Z,21.50
2019-05-18T08:03:33.570Z,21.50
2019-05-18T08:06:04.357Z,21.60
2019-05-18T08:08:35.508Z,21.40
2019-05-18T08:11:06.262Z,21.30
2019-05-18T08:13:37.124Z,21.30
2019-05-18T08:16:07.812Z,21.50
2019-05-18T08:18:39.213Z,21.40
2019-05-18T08:21:10.067Z,21.40
2019-05-18T08:23:45.434Z,21.60
2019-05-18T08:26:16.256Z,21.50
2019-05-18T08:28:47.461Z,21.50
2019-05-18T08:31:18.222Z,21.50
2019-05-18T08:33:50.391Z,21.60
2019-05-18T08:36:21.605Z,21.70
2019-05-18T08:38:52.440Z,21.50
2019-05-18T08:41:28.234Z,21.90
2019-05-18T08:43:58.890Z,22.00
2019-05-18T08:46:29.581Z,22.40
2019-05-18T08:49:08.493Z,22.60
2019-05-18T08:51:40.451Z,22.80
2019-05-18T08:54:11.350Z,23.00
2019-05-18T08:56:42.066Z,23.00
2019-05-18T08:59:12.859Z,22.90
2019-05-18T09:01:43.700Z,22.90
2019-05-18T09:04:14.467Z,23.20
2019-05-18T09:06:45.999Z,23.20
2019-05-18T09:09:16.805Z,23.50
2019-05-18T09:11:48.687Z,23.30
2019-05-18T09:14:19.508Z,23.30
2019-05-18T09:16:51.308Z,23.50
2019-05-18T09:19:22.100Z,23.50
2019-05-18T09:21:54.083Z,23.50
2019-05-18T09:24:24.802Z,23.40
2019-05-18T09:26:55.813Z,23.40
2019-05-18T09:29:26.539Z,23.40
2019-05-18T09:31:57.318Z,23.40
2019-05-18T09:34:28.748Z,23.30
2019-05-18T09:37:02.629Z,23.20
2019-05-18T09:39:34.710Z,22.90
2019-05-18T09:42:08.647Z,22.80
2019-05-18T09:44:40.558Z,23.00
2019-05-18T09:47:11.564Z,23.00
2019-05-18T09:49:42.829Z,23.20
2019-05-18T09:52:13.588Z,23.30
2019-05-18T09:54:44.522Z,23.20
2019-05-18T09:57:15.224Z,23.40
2019-05-18T09:59:48.414Z,23.90
2019-05-18T10:02:19.114Z,24.40
2019-05-18T10:04:50.466Z,24.40
2019-05-18T10:07:21.158Z,23.90
2019-05-18T10:09:52.673Z,23.60
2019-05-18T10:12:24.829Z,23.60
2019-05-18T10:14:56.744Z,23.60
2019-05-18T10:17:27.471Z,23.70
2019-05-18T10:19:58.141Z,23.50
2019-05-18T10:22:28.976Z,23.20
2019-05-18T10:24:59.722Z,23.10
2019-05-18T10:27:30.404Z,23.00
2019-05-18T10:30:01.068Z,23.40
2019-05-18T10:32:31.761Z,23.80
2019-05-18T10:35:02.456Z,24.00
2019-05-18T10:37:33.135Z,24.10
2019-05-18T10:40:03.855Z,24.20
2019-05-18T10:42:34.633Z,24.10
2019-05-18T10:45:05.869Z,24.10
2019-05-18T10:47:36.505Z,24.40
2019-05-18T10:50:08.268Z,24.70
2019-05-18T10:52:39.035Z,24.70
2019-05-18T10:55:10.715Z,24.70
2019-05-18T10:57:42.624Z,24.80
2019-05-18T11:00:14.512Z,24.90
2019-05-18T11:02:45.208Z,25.10
2019-05-18T11:05:16.264Z,25.10
2019-05-18T11:07:47.412Z,25.30
2019-05-18T11:10:20.735Z,25.40
2019-05-18T11:12:51.433Z,25.50
2019-05-18T11:15:23.781Z,25.50
2019-05-18T11:17:55.067Z,25.20
2019-05-18T11:20:25.944Z,24.70
2019-05-18T11:22:57.510Z,24.40
2019-05-18T11:25:28.216Z,24.60
2019-05-18T11:27:59.057Z,25.00
2019-05-18T11:30:29.785Z,25.20
2019-05-18T11:33:00.592Z,25.10
2019-05-18T11:35:31.346Z,24.70
2019-05-18T11:38:02.138Z,24.60
2019-05-18T11:40:32.875Z,24.40
2019-05-18T11:43:03.545Z,24.70
2019-05-18T11:45:34.452Z,25.00
2019-05-18T11:48:05.201Z,24.80
2019-05-18T11:50:35.933Z,24.80
2019-05-18T11:53:06.708Z,24.90
2019-05-18T11:55:37.514Z,24.90
2019-05-18T11:58:08.434Z,24.90
2019-05-18T12:00:40.135Z,25.10
2019-05-18T12:03:10.844Z,25.20
2019-05-18T12:05:41.592Z,25.30
2019-05-18T12:08:12.321Z,25.20
2019-05-18T12:10:42.986Z,24.80
2019-05-18T12:13:13.686Z,25.10
2019-05-18T12:15:44.579Z,25.40
2019-05-18T12:18:15.335Z,25.40
2019-05-18T12:20:46.217Z,25.50
2019-05-18T12:23:16.879Z,25.70
2019-05-18T12:25:50.640Z,25.60
2019-05-18T12:28:19.979Z,25.70
2019-05-18T12:30:50.645Z,25.50
2019-05-18T12:33:21.282Z,25.40
2019-05-18T12:35:53.191Z,25.80
2019-05-18T12:38:24.055Z,26.20
2019-05-18T12:40:55.215Z,26.20
2019-05-18T12:43:25.877Z,26.40
2019-05-18T12:45:57.390Z,26.70
2019-05-18T12:48:28.115Z,27.20
2019-05-18T12:50:59.104Z,27.60
2019-05-18T12:53:29.787Z,28.30
2019-05-18T12:56:01.332Z,28.90
2019-05-18T12:58:32.090Z,29.20
2019-05-18T13:01:02.996Z,29.50
2019-05-18T13:03:33.706Z,29.50
2019-05-18T13:06:04.868Z,28.90
2019-05-18T13:08:35.522Z,28.40
2019-05-18T13:11:06.441Z,28.80
2019-05-18T13:13:37.216Z,29.30
2019-05-18T13:16:07.935Z,29.20
2019-05-18T13:18:39.120Z,29.50
2019-05-18T13:21:09.847Z,29.80
2019-05-18T13:23:40.696Z,29.80
2019-05-18T13:26:11.363Z,30.10
2019-05-18T13:28:42.397Z,29.80
2019-05-18T13:31:13.139Z,29.70
2019-05-18T13:33:44.211Z,29.60
2019-05-18T13:36:15.008Z,29.50
2019-05-18T13:38:45.716Z,30.10
2019-05-18T13:41:16.923Z,30.30
2019-05-18T13:43:47.681Z,30.40
2019-05-18T13:46:18.356Z,30.20
2019-05-18T13:48:49.023Z,29.80
2019-05-18T13:51:19.680Z,29.90
2019-05-18T13:53:51.051Z,30.40
2019-05-18T13:56:21.705Z,29.90
2019-05-18T13:58:52.351Z,30.10
2019-05-18T14:01:24.834Z,30.40
2019-05-18T14:03:55.402Z,30.40
2019-05-18T14:06:26.237Z,30.70
2019-05-18T14:08:57.933Z,30.90
2019-05-18T14:11:28.700Z,31.50
2019-05-18T14:13:59.355Z,32.00
2019-05-18T14:16:30.113Z,32.40
2019-05-18T14:19:00.890Z,32.10
2019-05-18T14:21:31.804Z,31.60
2019-05-18T14:24:02.983Z,30.90
2019-05-18T14:26:33.688Z,30.50
2019-05-18T14:29:05.088Z,30.80
2019-05-18T14:31:35.823Z,30.30
2019-05-18T14:34:07.487Z,30.30
2019-05-18T14:36:39.066Z,30.60
2019-05-18T14:39:09.854Z,30.60
2019-05-18T14:41:42.572Z,30.20
2019-05-18T14:44:13.024Z,30.00
2019-05-18T14:46:43.668Z,29.80
2019-05-18T14:49:14.317Z,29.60
2019-05-18T14:51:45.450Z,29.80
2019-05-18T14:54:18.212Z,30.00
2019-05-18T14:56:48.910Z,29.80
2019-05-18T14:59:19.641Z,29.60
2019-05-18T15:01:50.357Z,29.90
2019-05-18T15:04:21.046Z,29.90
2019-05-18T15:06:51.776Z,29.80
2019-05-18T15:09:22.492Z,29.80
2019-05-18T15:11:53.733Z,29.40
2019-05-18T15:14:24.416Z,29.50
2019-05-18T15:16:55.067Z,29.60
2019-05-18T15:19:25.734Z,29.70
2019-05-18T15:21:56.379Z,29.80
2019-05-18T15:24:27.038Z,29.70
2019-05-18T15:26:57.798Z,29.30
2019-05-18T15:29:28.465Z,29.20
2019-05-18T15:31:59.150Z,28.50
2019-05-18T15:34:29.898Z,28.00
2019-05-18T15:37:00.635Z,27.80
2019-05-18T15:39:31.363Z,27.60
2019-05-18T15:42:02.050Z,27.30
2019-05-18T15:44:32.810Z,27.00
2019-05-18T15:47:03.528Z,26.70
2019-05-18T15:49:34.420Z,26.50
2019-05-18T15:52:05.357Z,26.40
2019-05-18T15:54:37.139Z,26.30
2019-05-18T15:57:07.969Z,26.10
2019-05-18T15:59:38.773Z,25.90
2019-05-18T16:02:09.543Z,25.80
2019-05-18T16:04:40.406Z,25.90
2019-05-18T16:07:11.077Z,25.90
2019-05-18T16:09:42.477Z,25.80
2019-05-18T16:12:13.134Z,25.60
2019-05-18T16:14:43.908Z,25.50
2019-05-18T16:17:14.567Z,25.20
2019-05-18T16:19:45.259Z,25.10
2019-05-18T16:22:16.328Z,24.90
2019-05-18T16:24:47.123Z,24.80
2019-05-18T16:27:17.802Z,24.70
2019-05-18T16:29:49.307Z,24.60
2019-05-18T16:32:20.197Z,24.50
2019-05-18T16:34:50.927Z,24.40
2019-05-18T16:37:22.465Z,24.40
2019-05-18T16:39:53.127Z,24.40
2019-05-18T16:42:24.395Z,24.30
2019-05-18T16:44:55.331Z,24.30
2019-05-18T16:47:26.116Z,24.10
2019-05-18T16:49:56.808Z,24.00
2019-05-18T16:52:27.604Z,24.00
2019-05-18T16:54:58.345Z,23.90
2019-05-18T16:57:29.005Z,23.80
2019-05-18T16:59:59.658Z,23.80
2019-05-18T17:02:31.911Z,23.70
2019-05-18T17:05:02.867Z,23.60
2019-05-18T17:07:33.539Z,23.50
2019-05-18T17:10:04.353Z,23.50
2019-05-18T17:12:34.995Z,23.40
2019-05-18T17:15:06.009Z,23.40
2019-05-18T17:17:36.794Z,23.40
2019-05-18T17:20:09.012Z,23.30
2019-05-18T17:22:39.738Z,23.30
2019-05-18T17:25:10.930Z,23.40
2019-05-18T17:27:43.223Z,23.20
2019-05-18T17:30:14.714Z,23.20
2019-05-18T17:32:45.380Z,23.10
2019-05-18T17:35:16.457Z,23.00
2019-05-18T17:37:47.306Z,22.90
2019-05-18T17:40:18.978Z,22.90
2019-05-18T17:42:49.716Z,22.80
2019-05-18T17:45:20.356Z,22.70
2019-05-18T17:47:51.546Z,22.60
2019-05-18T17:50:23.347Z,22.60
2019-05-18T17:52:54.437Z,22.50
2019-05-18T17:55:25.561Z,22.40
2019-05-18T17:57:57.325Z,22.30
2019-05-18T18:00:29.891Z,22.20
2019-05-18T18:03:00.720Z,22.10
2019-05-18T18:05:31.632Z,22.00
2019-05-18T18:08:02.380Z,22.00
2019-05-18T18:10:33.276Z,22.00
2019-05-18T18:13:04.040Z,21.90
2019-05-18T18:15:36.458Z,21.90
2019-05-18T18:18:07.123Z,21.80
2019-05-18T18:20:38.014Z,21.70
2019-05-18T18:23:08.640Z,21.60
2019-05-18T18:25:39.368Z,21.50
2019-05-18T18:28:10.000Z,21.40
2019-05-18T18:30:43.414Z,21.30
2019-05-18T18:33:14.257Z,21.20
2019-05-18T18:35:47.415Z,21.10
2019-05-18T18:38:18.079Z,20.90
2019-05-18T18:40:48.743Z,20.90
2019-05-18T18:43:20.540Z,20.80
2019-05-18T18:45:51.632Z,20.70
2019-05-18T18:48:22.315Z,20.70
2019-05-18T18:50:54.649Z,20.80
2019-05-18T18:53:25.416Z,20.80
2019-05-18T18:55:56.192Z,20.80
2019-05-18T18:58:27.450Z,20.60
2019-05-18T19:00:58.359Z,20.50
2019-05-18T19:03:29.440Z,20.30
2019-05-18T19:06:00.148Z,20.20
2019-05-18T19:08:31.363Z,20.00
2019-05-18T19:11:02.346Z,20.00
2019-05-18T19:13:34.576Z,19.80
2019-05-18T19:16:05.608Z,19.70
2019-05-18T19:18:36.294Z,19.70
2019-05-18T19:21:07.574Z,19.60
2019-05-18T19:23:38.347Z,19.70
2019-05-18T19:26:09.018Z,19.80
2019-05-18T19:28:39.930Z,19.70
2019-05-18T19:31:10.930Z,19.70
2019-05-18T19:33:43.684Z,19.80
2019-05-18T19:36:14.388Z,19.80
2019-05-18T19:38:52.755Z,19.80
2019-05-18T19:41:28.635Z,19.90
2019-05-18T19:43:59.279Z,19.90
2019-05-18T19:46:30.694Z,19.90
2019-05-18T19:49:01.975Z,19.80
2019-05-18T19:51:32.818Z,19.90
2019-05-18T19:54:03.629Z,19.90
2019-05-18T19:56:39.116Z,19.80
2019-05-18T19:59:06.856Z,19.70
2019-05-18T20:01:38.492Z,19.70
2019-05-18T20:04:09.742Z,19.60
2019-05-18T20:06:42.659Z,19.50
2019-05-18T20:09:13.418Z,19.40
2019-05-18T20:11:44.176Z,19.30
2019-05-18T20:14:15.095Z,19.20
2019-05-18T20:16:45.800Z,19.10
2019-05-18T20:19:17.947Z,19.10
2019-05-18T20:21:48.712Z,19.10
2019-05-18T20:24:20.200Z,19.10
2019-05-18T20:26:51.172Z,19.00
2019-05-18T20:29:22.014Z,19.00
2019-05-18T20:31:52.869Z,19.00
2019-05-18T20:34:23.602Z,18.90
2019-05-18T20:36:54.367Z,18.90
2019-05-18T20:39:25.125Z,18.80
2019-05-18T20:41:56.187Z,18.80
2019-05-18T20:44:27.009Z,18.70
2019-05-18T20:46:57.821Z,18.60
2019-05-18T20:49:28.808Z,18.50
2019-05-18T20:52:01.177Z,18.40
2019-05-18T20:54:32.033Z,18.30
2019-05-18T20:57:02.826Z,18.20
2019-05-18T20:59:34.185Z,18.00
2019-05-18T21:02:04.989Z,17.90
2019-05-18T21:04:36.469Z,17.90
2019-05-18T21:07:07.233Z,17.80
2019-05-18T21:09:41.777Z,17.70
2019-05-18T21:12:12.842Z,17.50
2019-05-18T21:14:44.243Z,17.50
2019-05-18T21:17:14.913Z,17.40
2019-05-18T21:19:45.619Z,17.30
2019-05-18T21:22:17.501Z,17.20
2019-05-18T21:24:48.195Z,17.10
2019-05-18T21:27:18.993Z,17.00
2019-05-18T21:29:50.153Z,16.90
2019-05-18T21:32:27.134Z,16.90
2019-05-18T21:35:01.229Z,16.80
2019-05-18T21:37:32.899Z,16.70
2019-05-18T21:40:03.839Z,16.70
2019-05-18T21:42:34.639Z,16.70
2019-05-18T21:45:05.583Z,16.60
2019-05-18T21:47:36.440Z,16.50
2019-05-18T21:50:08.337Z,16.50
2019-05-18T21:52:41.869Z,16.40
2019-05-18T21:55:11.914Z,16.30
2019-05-18T21:57:44.973Z,16.20
2019-05-18T22:00:16.585Z,16.20
2019-05-18T22:02:48.349Z,16.10
2019-05-18T22:05:21.375Z,16.10
2019-05-18T22:07:52.104Z,16.00
2019-05-18T22:10:25.752Z,15.90
2019-05-18T22:12:55.650Z,15.80
2019-05-18T22:15:28.037Z,15.80
2019-05-18T22:18:05.304Z,15.80
2019-05-18T22:20:43.545Z,15.80
2019-05-18T22:23:11.157Z,15.60
2019-05-18T22:25:42.560Z,15.40
2019-05-18T22:28:14.464Z,15.30
2019-05-18T22:30:45.997Z,15.20
2019-05-18T22:33:16.809Z,15.20
2019-05-18T22:35:48.666Z,15.10
2019-05-18T22:38:20.018Z,14.90
2019-05-18T22:40:51.175Z,14.80
2019-05-18T22:43:22.075Z,14.60
2019-05-18T22:45:53.025Z,14.50
2019-05-18T22:48:23.800Z,14.40
2019-05-18T22:50:55.253Z,14.30
2019-05-18T22:53:26.078Z,14.20
2019-05-18T22:55:57.135Z,14.10
2019-05-18T22:58:28.679Z,14.00
2019-05-18T23:00:59.506Z,13.90
2019-05-18T23:03:30.564Z,14.00
2019-05-18T23:06:02.110Z,14.00
2019-05-18T23:08:33.593Z,14.00
2019-05-18T23:11:04.225Z,14.00
2019-05-18T23:13:34.893Z,13.90
2019-05-18T23:16:05.619Z,13.80
2019-05-18T23:18:36.300Z,13.70
2019-05-18T23:21:07.027Z,13.60
2019-05-18T23:23:37.863Z,13.50
2019-05-18T23:26:11.566Z,13.40
2019-05-18T23:28:40.992Z,13.40
2019-05-18T23:31:11.675Z,13.30
2019-05-18T23:33:42.928Z,13.20
2019-05-18T23:36:13.576Z,13.10
2019-05-18T23:38:44.342Z,13.10
2019-05-18T23:41:15.048Z,13.10
2019-05-18T23:43:45.723Z,13.00
2019-05-18T23:46:16.361Z,13.00
2019-05-18T23:48:47.047Z,13.00
2019-05-18T23:51:17.707Z,12.90
2019-05-18T23:53:48.806Z,12.80
2019-05-18T23:56:19.429Z,12.80
2019-05-18T23:58:50.662Z,12.70
